Time;durP1;ratioP1;P1;durP2;ratioP2;P2;SDS_P1;SDS_P2;PMS_P1;PMS_P2;Temp;Humidity;BMP_temperature;BMP_pressure;BME280_temperature;BME280_humidity;BME280_pressure;Samples;Min_cycle;Max_cycle;Signal;HPM_P1;HPM_P2
2023/07/16 00:00:33;;;;;;;2.35;2.00;;;21.20;99.90;;;;;;2093183;28;20060;-70
2023/07/16 00:01:34;;;;;;;4.57;2.08;;;21.20;99.90;;;;;;2091390;28;20029;-70
2023/07/16 00:02:34;;;;;;;5.47;1.70;;;21.20;99.90;;;;;;2093299;28;20020;-70
2023/07/16 00:03:35;;;;;;;2.70;1.90;;;21.20;99.90;;;;;;2091420;28;20151;-70
2023/07/16 00:04:35;;;;;;;3.33;1.70;;;21.20;99.90;;;;;;2091743;28;20020;-70
2023/07/16 00:05:38;;;;;;;3.72;1.75;;;21.10;99.90;;;;;;2092297;28;20028;-70
2023/07/16 00:06:38;;;;;;;2.13;1.40;;;21.10;99.90;;;;;;2091753;28;20022;-70
2023/07/16 00:07:39;;;;;;;3.40;1.70;;;21.20;99.90;;;;;;2092838;28;20029;-70
2023/07/16 00:08:39;;;;;;;6.15;1.70;;;21.10;99.90;;;;;;2093856;28;20033;-70
2023/07/16 00:09:40;;;;;;;4.03;1.40;;;21.10;99.90;;;;;;2093069;28;20108;-70
2023/07/16 00:10:41;;;;;;;5.05;1.40;;;21.20;99.90;;;;;;2092100;28;20116;-70
2023/07/16 00:11:41;;;;;;;3.33;1.42;;;21.10;99.90;;;;;;2093696;28;20044;-70
2023/07/16 00:12:42;;;;;;;2.63;1.50;;;21.20;99.90;;;;;;2092326;28;20866;-70
2023/07/16 00:13:46;;;;;;;3.05;1.67;;;21.20;99.90;;;;;;2093014;28;20545;-70
2023/07/16 00:14:48;;;;;;;2.58;1.60;;;21.20;99.90;;;;;;2091628;28;20031;-70
2023/07/16 00:15:48;;;;;;;2.97;1.83;;;21.20;99.90;;;;;;2093504;28;20051;-70
2023/07/16 00:16:49;;;;;;;2.25;1.42;;;21.20;99.90;;;;;;2091702;28;20047;-70
2023/07/16 00:17:49;;;;;;;2.72;1.77;;;21.10;99.90;;;;;;2092527;28;20453;-70
2023/07/16 00:18:50;;;;;;;2.67;1.60;;;21.10;99.90;;;;;;2091710;28;20025;-70
2023/07/16 00:19:50;;;;;;;1.60;1.50;;;21.20;99.90;;;;;;2091213;28;20020;-70
2023/07/16 00:20:51;;;;;;;2.40;1.52;;;21.10;99.90;;;;;;2091556;28;20029;-70
2023/07/16 00:21:51;;;;;;;1.85;1.42;;;21.10;99.90;;;;;;2092710;28;20105;-70
2023/07/16 00:22:52;;;;;;;3.83;1.52;;;21.20;99.90;;;;;;2091295;28;20404;-70
2023/07/16 00:23:53;;;;;;;3.22;1.70;;;21.10;99.90;;;;;;2093009;28;20028;-70
2023/07/16 00:24:53;;;;;;;2.33;1.77;;;21.10;99.90;;;;;;2092596;28;20025;-70
2023/07/16 00:25:54;;;;;;;2.17;1.40;;;21.10;99.90;;;;;;2092288;28;20040;-70
2023/07/16 00:26:54;;;;;;;2.58;1.42;;;21.10;99.90;;;;;;2091542;28;20101;-70
2023/07/16 00:27:55;;;;;;;3.20;2.20;;;21.10;99.90;;;;;;2092121;28;20025;-70
2023/07/16 00:28:55;;;;;;;4.47;1.65;;;21.10;99.90;;;;;;2094286;28;20030;-70
2023/07/16 00:29:56;;;;;;;4.55;2.03;;;21.10;99.90;;;;;;2092056;28;20043;-70
2023/07/16 00:30:56;;;;;;;4.38;2.00;;;21.10;99.90;;;;;;2092959;28;20032;-70
2023/07/16 00:31:57;;;;;;;1.85;1.30;;;21.10;99.90;;;;;;2091968;28;20033;-70
2023/07/16 00:32:57;;;;;;;3.00;1.35;;;21.10;99.90;;;;;;2092191;28;20032;-70
2023/07/16 00:33:58;;;;;;;1.73;1.23;;;21.10;99.90;;;;;;2092319;28;20029;-70
2023/07/16 00:34:58;;;;;;;3.28;1.85;;;21.10;99.90;;;;;;2092526;28;20808;-70
2023/07/16 00:35:59;;;;;;;5.22;1.73;;;21.10;99.90;;;;;;2092501;28;20906;-70
2023/07/16 00:37:01;;;;;;;2.40;1.60;;;21.10;99.90;;;;;;2091029;28;20032;-70
2023/07/16 00:38:02;;;;;;;6.70;1.75;;;21.10;99.90;;;;;;2093785;28;20460;-70
2023/07/16 00:39:02;;;;;;;4.88;1.70;;;21.10;99.90;;;;;;2094886;28;20644;-70
2023/07/16 00:40:04;;;;;;;2.95;2.20;;;21.00;99.90;;;;;;2092200;28;20146;-70
2023/07/16 00:41:04;;;;;;;3.38;1.60;;;21.10;99.90;;;;;;2091417;28;20417;-70
2023/07/16 00:42:05;;;;;;;2.92;1.55;;;21.10;99.90;;;;;;2093025;28;20052;-70
2023/07/16 00:43:05;;;;;;;4.28;1.63;;;21.10;99.90;;;;;;2092081;28;20220;-70
2023/07/16 00:44:06;;;;;;;4.07;1.75;;;21.10;99.90;;;;;;2091695;28;20064;-70
2023/07/16 00:45:12;;;;;;;3.15;1.40;;;21.00;99.90;;;;;;2092533;28;20024;-70
2023/07/16 00:46:13;;;;;;;4.38;1.75;;;21.00;99.90;;;;;;2091396;28;20082;-71
2023/07/16 00:47:14;;;;;;;4.07;1.88;;;21.00;99.90;;;;;;2092178;28;20087;-70
2023/07/16 00:48:15;;;;;;;3.92;2.20;;;21.00;99.90;;;;;;2093639;28;20492;-70
2023/07/16 00:49:16;;;;;;;3.20;1.80;;;21.00;99.90;;;;;;2093452;28;20024;-70
2023/07/16 00:50:16;;;;;;;3.20;1.90;;;21.00;99.90;;;;;;2093569;28;20137;-70
2023/07/16 00:51:18;;;;;;;2.17;1.38;;;21.00;99.90;;;;;;2092646;28;20017;-70
2023/07/16 00:52:21;;;;;;;3.05;1.92;;;21.00;99.90;;;;;;2094377;28;20477;-70
2023/07/16 00:53:23;;;;;;;3.20;1.70;;;21.00;99.90;;;;;;2091496;28;20664;-70
2023/07/16 00:54:24;;;;;;;2.65;1.75;;;21.00;99.90;;;;;;2092894;28;20373;-70
2023/07/16 00:55:24;;;;;;;4.70;2.25;;;21.00;99.90;;;;;;2091701;28;20064;-70
2023/07/16 00:56:25;;;;;;;3.45;1.60;;;21.00;99.90;;;;;;2092059;28;20025;-70
2023/07/16 00:57:25;;;;;;;4.55;1.98;;;21.00;99.90;;;;;;2092183;28;20025;-70
2023/07/16 00:58:26;;;;;;;7.15;1.75;;;21.00;99.90;;;;;;2090845;28;20033;-70
2023/07/16 00:59:27;;;;;;;4.05;1.90;;;21.00;99.90;;;;;;2094573;28;20035;-70
2023/07/16 01:00:27;;;;;;;2.60;1.88;;;21.00;99.90;;;;;;2093043;28;20013;-70
2023/07/16 01:01:28;;;;;;;3.53;1.90;;;21.00;99.90;;;;;;2092670;28;20024;-70
2023/07/16 01:02:28;;;;;;;2.15;1.88;;;21.00;99.90;;;;;;2093088;28;20021;-70
2023/07/16 01:03:29;;;;;;;1.92;1.50;;;21.00;99.90;;;;;;2093131;28;20103;-70
2023/07/16 01:04:29;;;;;;;3.70;1.60;;;21.00;99.90;;;;;;2093718;28;20549;-70
2023/07/16 01:06:09;;;;;;;5.03;2.13;;;20.90;99.90;;;;;;2091213;28;20483;-70
2023/07/16 01:07:13;;;;;;;6.38;1.40;;;20.90;99.90;;;;;;2094026;28;20021;-70
2023/07/16 01:08:20;;;;;;;3.75;1.67;;;20.90;99.90;;;;;;2092376;28;20115;-70
2023/07/16 01:09:21;;;;;;;4.28;2.38;;;20.90;99.90;;;;;;2093859;28;20036;-70
2023/07/16 01:10:23;;;;;;;3.47;1.63;;;20.90;99.90;;;;;;2091494;28;20020;-70
2023/07/16 01:11:24;;;;;;;4.05;1.77;;;20.90;99.90;;;;;;2092045;28;20541;-70
2023/07/16 01:12:27;;;;;;;2.25;1.63;;;20.90;99.90;;;;;;2091782;28;20036;-70
2023/07/16 01:13:29;;;;;;;6.97;2.13;;;20.90;99.90;;;;;;2092471;28;20025;-70
2023/07/16 01:14:30;;;;;;;2.50;1.80;;;20.90;99.90;;;;;;2098731;28;20032;-70
2023/07/16 01:15:31;;;;;;;4.60;2.22;;;20.90;99.90;;;;;;2091991;28;20017;-70
2023/07/16 01:16:32;;;;;;;5.20;1.92;;;20.90;99.90;;;;;;2091722;28;20104;-70
2023/07/16 01:17:32;;;;;;;2.85;2.33;;;20.90;99.90;;;;;;2092931;28;20021;-70
2023/07/16 01:18:33;;;;;;;4.07;2.55;;;20.90;99.90;;;;;;2090754;28;20035;-70
2023/07/16 01:19:35;;;;;;;3.65;2.30;;;20.90;99.90;;;;;;2093493;28;20035;-70
2023/07/16 01:20:35;;;;;;;4.25;2.35;;;20.80;99.90;;;;;;2091643;28;20425;-70
2023/07/16 01:21:48;;;;;;;13.90;2.40;;;20.80;99.90;;;;;;2090172;28;20035;-70
2023/07/16 01:23:13;;;;;;;3.90;2.42;;;20.80;99.90;;;;;;2091948;28;20029;-70
2023/07/16 01:24:16;;;;;;;4.07;2.53;;;20.80;99.90;;;;;;2093102;28;20055;-70
2023/07/16 01:25:42;;;;;;;4.28;2.53;;;20.80;99.90;;;;;;2092955;28;20548;-70
2023/07/16 01:26:56;;;;;;;4.97;2.70;;;20.80;99.90;;;;;;2090957;28;20066;-70
2023/07/16 01:28:27;;;;;;;3.40;1.90;;;20.70;99.90;;;;;;2091452;28;20025;-70
2023/07/16 01:29:34;;;;;;;2.35;1.80;;;20.70;99.90;;;;;;2091015;28;20020;-70
2023/07/16 01:30:39;;;;;;;3.92;2.15;;;20.60;99.90;;;;;;2090445;28;20016;-70
2023/07/16 01:31:41;;;;;;;4.95;2.33;;;20.70;99.90;;;;;;2092839;28;20021;-70
2023/07/16 01:32:42;;;;;;;4.05;1.90;;;20.60;99.90;;;;;;2092247;28;20033;-70
2023/07/16 01:33:44;;;;;;;3.55;2.20;;;20.60;99.90;;;;;;2093394;28;20016;-70
2023/07/16 01:34:45;;;;;;;4.47;2.25;;;20.60;99.90;;;;;;2092570;28;20359;-70
2023/07/16 01:35:48;;;;;;;3.22;2.20;;;20.60;99.90;;;;;;2092073;28;20020;-70
2023/07/16 01:36:49;;;;;;;4.93;2.13;;;20.60;99.90;;;;;;2093842;28;20020;-70
2023/07/16 01:37:50;;;;;;;5.47;2.00;;;20.60;99.90;;;;;;2092017;28;20057;-70
2023/07/16 01:38:51;;;;;;;3.15;1.85;;;20.60;99.90;;;;;;2090822;28;20025;-70
2023/07/16 01:39:51;;;;;;;4.07;1.80;;;20.60;99.90;;;;;;2091329;28;20028;-70
2023/07/16 01:40:52;;;;;;;3.72;2.08;;;20.60;99.90;;;;;;2091462;28;20020;-70
2023/07/16 01:41:52;;;;;;;3.65;1.95;;;20.50;99.90;;;;;;2092696;28;20029;-70
2023/07/16 01:42:53;;;;;;;3.80;1.75;;;20.50;99.90;;;;;;2090776;28;20463;-70
2023/07/16 01:43:53;;;;;;;5.35;1.80;;;20.50;99.90;;;;;;2091000;28;20048;-70
2023/07/16 01:44:54;;;;;;;4.20;1.70;;;20.50;99.90;;;;;;2091829;28;20028;-70
2023/07/16 01:45:54;;;;;;;5.00;2.28;;;20.50;99.90;;;;;;2091012;28;20082;-70
2023/07/16 01:47:05;;;;;;;1.80;1.67;;;20.50;99.90;;;;;;2091582;28;20509;-70
2023/07/16 01:48:31;;;;;;;2.33;1.88;;;20.50;99.90;;;;;;2089705;28;20056;-70
2023/07/16 01:49:33;;;;;;;3.20;1.90;;;20.50;99.90;;;;;;2092551;28;20020;-70
2023/07/16 01:50:34;;;;;;;6.80;1.90;;;20.50;99.90;;;;;;2092822;28;20111;-70
2023/07/16 01:51:34;;;;;;;2.88;1.88;;;20.50;99.90;;;;;;2090828;28;20024;-70
2023/07/16 01:52:35;;;;;;;3.75;1.98;;;20.50;99.90;;;;;;2090087;28;20040;-70
2023/07/16 01:53:36;;;;;;;3.72;1.98;;;20.50;99.90;;;;;;2091521;28;20850;-70
2023/07/16 01:54:37;;;;;;;3.67;1.80;;;20.50;99.90;;;;;;2092207;28;20035;-70
2023/07/16 01:55:37;;;;;;;3.75;1.95;;;20.40;99.90;;;;;;2090973;28;20048;-70
2023/07/16 01:56:38;;;;;;;5.43;2.50;;;20.50;99.90;;;;;;2092391;28;20021;-70
2023/07/16 01:57:38;;;;;;;3.20;1.60;;;20.50;99.90;;;;;;2091904;28;20433;-70
2023/07/16 01:58:39;;;;;;;3.33;1.77;;;20.50;99.90;;;;;;2092943;28;20012;-70
2023/07/16 01:59:40;;;;;;;5.70;2.10;;;20.40;99.90;;;;;;2092206;28;20012;-70
2023/07/16 02:00:41;;;;;;;2.47;1.80;;;20.50;99.90;;;;;;2094287;28;20017;-70
2023/07/16 02:01:42;;;;;;;2.78;1.77;;;20.50;99.90;;;;;;2092096;28;20389;-70
2023/07/16 02:02:42;;;;;;;3.28;1.80;;;20.40;99.90;;;;;;2092055;28;20175;-70
2023/07/16 02:03:43;;;;;;;3.83;1.92;;;20.50;99.90;;;;;;2085743;28;21125;-70
2023/07/16 02:04:44;;;;;;;4.40;1.80;;;20.40;99.90;;;;;;2094326;28;20308;-70
2023/07/16 02:05:44;;;;;;;3.85;1.70;;;20.50;99.90;;;;;;2089840;28;20079;-70
2023/07/16 02:06:45;;;;;;;2.55;1.30;;;20.40;99.90;;;;;;2091370;28;20021;-70
2023/07/16 02:07:45;;;;;;;3.20;1.70;;;20.40;99.90;;;;;;2093971;28;20537;-70
2023/07/16 02:08:49;;;;;;;4.13;1.90;;;20.40;99.90;;;;;;2093204;28;20032;-70
2023/07/16 02:09:49;;;;;;;2.35;1.52;;;20.40;99.90;;;;;;2089796;28;20028;-70
2023/07/16 02:10:50;;;;;;;2.85;1.60;;;20.40;99.90;;;;;;2091854;28;20033;-70
2023/07/16 02:11:51;;;;;;;1.92;1.80;;;20.40;99.90;;;;;;2090254;28;20029;-70
2023/07/16 02:12:52;;;;;;;2.70;2.00;;;20.40;99.90;;;;;;2092072;28;20020;-70
2023/07/16 02:13:52;;;;;;;4.82;1.98;;;20.40;99.90;;;;;;2090988;28;20083;-70
2023/07/16 02:14:53;;;;;;;3.20;1.70;;;20.40;99.90;;;;;;2092090;28;20025;-70
2023/07/16 02:15:53;;;;;;;5.05;1.73;;;20.40;99.90;;;;;;2090141;28;20047;-70
2023/07/16 02:16:54;;;;;;;2.38;1.50;;;20.40;99.90;;;;;;2090281;28;20033;-70
2023/07/16 02:17:54;;;;;;;3.17;1.77;;;20.40;99.90;;;;;;2091686;28;20108;-70
2023/07/16 02:18:55;;;;;;;2.50;1.83;;;20.30;99.90;;;;;;2091301;28;20025;-70
2023/07/16 02:19:56;;;;;;;3.50;1.52;;;20.30;99.90;;;;;;2090244;28;20078;-70
2023/07/16 02:20:56;;;;;;;1.92;1.38;;;20.30;99.90;;;;;;2091928;28;20270;-70
2023/07/16 02:21:57;;;;;;;2.95;1.88;;;20.30;99.90;;;;;;2090192;28;20032;-70
2023/07/16 02:22:57;;;;;;;6.00;1.70;;;20.30;99.90;;;;;;2092540;28;20023;-70
2023/07/16 02:23:58;;;;;;;3.75;1.80;;;20.30;99.90;;;;;;2091824;28;20033;-70
2023/07/16 02:24:58;;;;;;;4.20;1.92;;;20.30;99.90;;;;;;2092363;28;20043;-70
2023/07/16 02:25:59;;;;;;;2.95;1.52;;;20.30;99.90;;;;;;2094027;28;20384;-70
2023/07/16 02:26:59;;;;;;;4.22;1.67;;;20.30;99.90;;;;;;2093029;28;20029;-70
2023/07/16 02:28:00;;;;;;;5.80;1.92;;;20.30;99.90;;;;;;2090337;28;20033;-70
2023/07/16 02:29:00;;;;;;;4.82;1.80;;;20.30;99.90;;;;;;2091386;28;20107;-70
2023/07/16 02:30:01;;;;;;;3.35;1.60;;;20.30;99.90;;;;;;2090015;28;20029;-70
2023/07/16 02:31:02;;;;;;;2.20;1.67;;;20.30;99.90;;;;;;2091858;28;20365;-70
2023/07/16 02:32:03;;;;;;;2.95;1.48;;;20.30;99.90;;;;;;2090892;28;20036;-70
2023/07/16 02:33:04;;;;;;;3.75;1.80;;;20.20;99.90;;;;;;2091538;28;20163;-70
2023/07/16 02:34:04;;;;;;;4.00;1.83;;;20.30;99.90;;;;;;2091335;28;20089;-70
2023/07/16 02:35:06;;;;;;;3.17;1.55;;;20.30;99.90;;;;;;2093270;28;20718;-70
2023/07/16 02:36:06;;;;;;;3.25;1.77;;;20.30;99.90;;;;;;2091262;28;20024;-70
2023/07/16 02:37:07;;;;;;;2.72;1.60;;;20.30;99.90;;;;;;2091171;28;20017;-70
2023/07/16 02:38:07;;;;;;;4.78;1.73;;;20.30;99.90;;;;;;2091424;28;20029;-70
2023/07/16 02:39:08;;;;;;;3.30;1.75;;;20.20;99.90;;;;;;2090744;28;20021;-70
2023/07/16 02:40:08;;;;;;;4.03;1.85;;;20.20;99.90;;;;;;2092252;28;20025;-70
2023/07/16 02:41:09;;;;;;;2.85;1.60;;;20.30;99.90;;;;;;2093779;28;20021;-70
2023/07/16 02:42:09;;;;;;;2.97;1.55;;;20.30;99.90;;;;;;2090388;28;20024;-70
2023/07/16 02:43:10;;;;;;;3.15;1.98;;;20.30;99.90;;;;;;2091008;28;20017;-70
2023/07/16 02:44:11;;;;;;;4.05;1.67;;;20.30;99.90;;;;;;2089869;28;20017;-70
2023/07/16 02:45:11;;;;;;;4.72;1.95;;;20.30;99.90;;;;;;2090281;28;20025;-70
2023/07/16 02:46:12;;;;;;;5.47;2.08;;;20.20;99.90;;;;;;2090734;28;20025;-70
2023/07/16 02:47:12;;;;;;;4.53;1.77;;;20.30;99.90;;;;;;2093666;28;20028;-70
2023/07/16 02:48:13;;;;;;;7.50;1.90;;;20.20;99.90;;;;;;2090604;28;20127;-70
2023/07/16 02:49:14;;;;;;;6.03;1.67;;;20.20;99.90;;;;;;2092390;28;20021;-71
2023/07/16 02:50:14;;;;;;;2.45;1.63;;;20.20;99.90;;;;;;2092477;28;20024;-70
2023/07/16 02:51:15;;;;;;;3.28;1.73;;;20.30;99.90;;;;;;2090306;28;20405;-70
2023/07/16 02:52:15;;;;;;;4.60;1.88;;;20.30;99.90;;;;;;2091460;28;20052;-70
2023/07/16 02:53:16;;;;;;;5.57;1.80;;;20.20;99.90;;;;;;2090701;28;20028;-70
2023/07/16 02:54:16;;;;;;;3.28;1.58;;;20.20;99.90;;;;;;2091957;28;20056;-70
2023/07/16 02:55:17;;;;;;;2.95;1.55;;;20.20;99.90;;;;;;2093124;28;20016;-70
2023/07/16 02:58:32;;;;;;;3.13;1.40;;;20.20;99.90;;;;;;2090857;28;20110;-70
2023/07/16 02:59:33;;;;;;;5.47;1.70;;;20.20;99.90;;;;;;2090256;28;20063;-70
2023/07/16 03:00:34;;;;;;;4.97;1.88;;;20.20;99.90;;;;;;2093689;28;20023;-70
2023/07/16 03:01:34;;;;;;;4.68;2.05;;;20.10;99.90;;;;;;2093025;28;20017;-70
2023/07/16 03:02:35;;;;;;;5.72;1.50;;;20.20;99.90;;;;;;2089986;28;20595;-70
2023/07/16 03:03:35;;;;;;;3.92;1.65;;;20.20;99.90;;;;;;2093133;28;20528;-70
2023/07/16 03:04:36;;;;;;;2.95;1.65;;;20.20;99.90;;;;;;2093195;28;20492;-70
2023/07/16 03:05:37;;;;;;;4.93;1.50;;;20.20;99.90;;;;;;2093441;28;20392;-70
2023/07/16 03:06:37;;;;;;;5.65;2.10;;;20.20;99.90;;;;;;2094578;28;20404;-70
2023/07/16 03:07:38;;;;;;;3.33;1.77;;;20.20;99.90;;;;;;2093274;28;20595;-70
2023/07/16 03:08:38;;;;;;;5.40;2.10;;;20.20;99.90;;;;;;2092622;28;20126;-70
2023/07/16 03:09:39;;;;;;;6.25;2.17;;;20.20;99.90;;;;;;2093302;28;20155;-70
2023/07/16 03:10:39;;;;;;;8.57;1.90;;;20.20;99.90;;;;;;2092783;28;20035;-70
2023/07/16 03:11:40;;;;;;;6.47;1.70;;;20.20;99.90;;;;;;2091466;28;20610;-70
2023/07/16 03:12:40;;;;;;;6.40;2.05;;;20.20;99.90;;;;;;2092607;28;20395;-70
2023/07/16 03:13:41;;;;;;;4.72;1.40;;;20.20;99.90;;;;;;2090634;28;20427;-70
2023/07/16 03:14:41;;;;;;;4.45;1.77;;;20.20;99.90;;;;;;2093873;28;20396;-70
2023/07/16 03:15:42;;;;;;;4.68;1.90;;;20.20;99.90;;;;;;2091957;28;20028;-70
2023/07/16 03:16:42;;;;;;;6.07;2.25;;;20.20;99.90;;;;;;2093556;28;20032;-70
2023/07/16 03:17:43;;;;;;;6.80;2.03;;;20.20;99.90;;;;;;2092449;28;20049;-70
2023/07/16 03:18:45;;;;;;;4.95;2.00;;;20.20;99.90;;;;;;2092840;28;20020;-70
2023/07/16 03:19:45;;;;;;;3.25;1.67;;;20.20;99.90;;;;;;2091930;28;20546;-70
2023/07/16 03:20:46;;;;;;;6.25;2.75;;;20.20;99.90;;;;;;2094477;28;20481;-70
2023/07/16 03:21:48;;;;;;;4.07;1.80;;;20.20;99.90;;;;;;2094793;28;20572;-70
2023/07/16 03:22:49;;;;;;;4.82;1.83;;;20.20;99.90;;;;;;2094091;28;20111;-70
2023/07/16 03:23:49;;;;;;;4.95;1.60;;;20.20;99.90;;;;;;2093068;28;20932;-70
2023/07/16 03:24:50;;;;;;;4.90;2.13;;;20.20;99.90;;;;;;2090928;28;20052;-70
2023/07/16 03:25:51;;;;;;;4.55;1.60;;;20.20;99.90;;;;;;2093604;28;20082;-70
2023/07/16 03:26:52;;;;;;;3.25;1.58;;;20.20;99.90;;;;;;2093575;28;20665;-70
2023/07/16 03:27:52;;;;;;;5.28;2.00;;;20.20;99.90;;;;;;2092121;28;20041;-70
2023/07/16 03:28:53;;;;;;;5.72;1.90;;;20.20;99.90;;;;;;2092612;28;20105;-70
2023/07/16 03:29:54;;;;;;;5.72;2.35;;;20.20;99.90;;;;;;2091137;28;20028;-70
2023/07/16 03:30:54;;;;;;;7.05;2.13;;;20.20;99.90;;;;;;2092072;28;20033;-70
2023/07/16 03:31:55;;;;;;;4.40;1.80;;;20.20;99.90;;;;;;2091468;28;20025;-70
2023/07/16 03:32:55;;;;;;;4.95;1.63;;;20.20;99.90;;;;;;2093005;28;20071;-71
2023/07/16 03:33:56;;;;;;;5.18;2.25;;;20.20;99.90;;;;;;2092966;28;20056;-70
2023/07/16 03:34:56;;;;;;;7.40;1.73;;;20.10;99.90;;;;;;2093889;28;20031;-70
2023/07/16 03:35:57;;;;;;;6.00;2.20;;;20.10;99.90;;;;;;2095804;28;20124;-70
2023/07/16 03:36:57;;;;;;;3.63;1.58;;;20.10;99.90;;;;;;2091660;28;20070;-70
2023/07/16 03:37:58;;;;;;;3.83;1.70;;;20.10;99.90;;;;;;2093431;28;20032;-70
2023/07/16 03:38:58;;;;;;;6.38;1.73;;;20.10;99.90;;;;;;2094443;28;20024;-70
2023/07/16 03:40:16;;;;;;;9.20;1.83;;;20.10;99.90;;;;;;2091221;28;20070;-70
2023/07/16 03:41:16;;;;;;;3.35;1.90;;;20.10;99.90;;;;;;2092842;28;20101;-70
2023/07/16 03:42:17;;;;;;;4.70;1.95;;;20.10;99.90;;;;;;2093253;28;20072;-70
2023/07/16 03:43:17;;;;;;;4.28;2.13;;;20.10;99.90;;;;;;2092546;28;20036;-70
2023/07/16 03:44:18;;;;;;;7.75;1.92;;;20.10;99.90;;;;;;2092695;28;20137;-70
2023/07/16 03:45:19;;;;;;;7.88;2.08;;;20.00;99.90;;;;;;2091494;28;20017;-70
2023/07/16 03:46:19;;;;;;;5.63;2.10;;;20.00;99.90;;;;;;2092488;28;20025;-70
2023/07/16 03:47:20;;;;;;;3.45;1.73;;;20.00;99.90;;;;;;2093276;28;20568;-70
2023/07/16 03:48:21;;;;;;;6.78;2.25;;;20.00;99.90;;;;;;2091617;28;20431;-70
2023/07/16 03:49:21;;;;;;;7.72;1.75;;;20.00;99.90;;;;;;2093420;28;20403;-70
2023/07/16 03:50:22;;;;;;;6.25;1.98;;;20.00;99.90;;;;;;2091437;28;20102;-70
2023/07/16 03:51:23;;;;;;;5.05;1.63;;;20.00;99.90;;;;;;2092902;28;20016;-70
2023/07/16 03:52:24;;;;;;;5.93;1.90;;;20.00;99.90;;;;;;2092122;28;20025;-70
2023/07/16 03:53:25;;;;;;;5.55;1.75;;;19.90;99.90;;;;;;2093945;28;20029;-70
2023/07/16 03:54:25;;;;;;;4.78;1.75;;;19.90;99.90;;;;;;2094324;28;20511;-70
2023/07/16 03:55:26;;;;;;;4.85;2.13;;;19.90;99.90;;;;;;2092413;28;20476;-71
2023/07/16 03:56:26;;;;;;;4.40;1.70;;;19.90;99.90;;;;;;2091722;28;20032;-71
2023/07/16 03:57:28;;;;;;;2.83;1.90;;;19.90;99.90;;;;;;2091335;28;20017;-71
2023/07/16 03:58:29;;;;;;;10.38;2.85;;;19.90;99.90;;;;;;2090574;28;20086;-71
2023/07/16 03:59:29;;;;;;;4.85;1.98;;;19.90;99.90;;;;;;2091690;28;20082;-70
2023/07/16 04:00:30;;;;;;;3.50;1.80;;;19.90;99.90;;;;;;2092059;28;20013;-71
2023/07/16 04:01:30;;;;;;;4.68;1.50;;;19.90;99.90;;;;;;2092363;28;20044;-71
2023/07/16 04:02:31;;;;;;;8.25;2.30;;;19.90;99.90;;;;;;2092418;28;20025;-70
2023/07/16 04:03:31;;;;;;;5.45;1.88;;;19.90;99.90;;;;;;2090875;28;20117;-71
2023/07/16 04:04:32;;;;;;;7.47;2.20;;;19.80;99.90;;;;;;2093517;28;20024;-70
2023/07/16 04:05:32;;;;;;;4.38;2.03;;;19.90;99.90;;;;;;2093621;28;20025;-70
2023/07/16 04:06:33;;;;;;;4.65;2.03;;;19.90;99.90;;;;;;2091704;28;20112;-71
2023/07/16 04:07:34;;;;;;;6.93;2.72;;;19.90;99.90;;;;;;2093676;28;20585;-70
2023/07/16 04:08:35;;;;;;;5.72;2.70;;;19.90;99.90;;;;;;2093052;28;20061;-71
2023/07/16 04:09:39;;;;;;;4.90;2.55;;;19.90;99.90;;;;;;2092715;28;20104;-71
2023/07/16 04:10:40;;;;;;;6.47;2.10;;;19.80;99.90;;;;;;2092106;28;20028;-71
2023/07/16 04:11:41;;;;;;;5.47;2.17;;;19.90;99.90;;;;;;2093749;28;20026;-70
2023/07/16 04:12:42;;;;;;;5.28;1.90;;;19.90;99.90;;;;;;2091715;28;20067;-70
2023/07/16 04:13:42;;;;;;;4.82;1.95;;;20.00;99.90;;;;;;2093146;28;20029;-70
2023/07/16 04:14:43;;;;;;;7.93;2.15;;;20.00;99.90;;;;;;2091361;28;20120;-70
2023/07/16 04:15:44;;;;;;;5.00;1.80;;;20.10;99.90;;;;;;2090604;28;20020;-70
2023/07/16 04:16:44;;;;;;;9.85;2.28;;;20.10;99.90;;;;;;2093110;28;20016;-71
2023/07/16 04:17:44;;;;;;;6.05;2.30;;;20.10;99.90;;;;;;2093111;28;20100;-71
2023/07/16 04:18:45;;;;;;;7.18;2.15;;;20.10;99.90;;;;;;2092695;28;20036;-71
2023/07/16 04:19:46;;;;;;;5.05;1.92;;;20.10;99.90;;;;;;2090665;28;20021;-71
2023/07/16 04:20:46;;;;;;;5.60;2.10;;;20.10;99.90;;;;;;2090933;28;20396;-71
2023/07/16 04:21:47;;;;;;;10.98;2.20;;;20.10;99.90;;;;;;2092877;28;20025;-71
2023/07/16 04:22:47;;;;;;;4.95;2.28;;;20.10;99.90;;;;;;2093009;28;20040;-71
2023/07/16 04:23:48;;;;;;;5.10;2.42;;;20.10;99.90;;;;;;2091793;28;20544;-71
2023/07/16 04:24:48;;;;;;;4.68;1.95;;;20.10;99.90;;;;;;2085116;28;20033;-71
2023/07/16 04:25:54;;;;;;;4.20;2.10;;;20.10;99.90;;;;;;2084703;28;20116;-71
2023/07/16 04:26:55;;;;;;;11.07;2.63;;;20.10;99.90;;;;;;2092166;28;20028;-71
2023/07/16 04:27:56;;;;;;;3.65;2.05;;;20.10;99.90;;;;;;2093902;28;20044;-71
2023/07/16 04:28:57;;;;;;;9.70;2.92;;;20.10;99.90;;;;;;2094121;28;20043;-71
2023/07/16 04:29:57;;;;;;;12.77;2.67;;;20.10;99.90;;;;;;2093492;28;20025;-71
2023/07/16 04:30:58;;;;;;;5.50;2.58;;;20.20;99.90;;;;;;2092251;28;20546;-71
2023/07/16 04:31:58;;;;;;;6.43;2.58;;;20.30;99.90;;;;;;2094706;28;20033;-71
2023/07/16 04:32:59;;;;;;;4.25;2.17;;;20.40;99.90;;;;;;2092917;28;20067;-71
2023/07/16 04:33:59;;;;;;;3.15;1.90;;;20.60;99.90;;;;;;2094464;28;20039;-71
2023/07/16 04:35:00;;;;;;;5.55;2.00;;;20.80;99.90;;;;;;2094171;28;20138;-71
2023/07/16 04:36:01;;;;;;;5.18;2.13;;;21.00;99.90;;;;;;2093280;28;20024;-71
2023/07/16 04:37:01;;;;;;;4.20;2.13;;;21.20;99.90;;;;;;2092098;28;20029;-71
2023/07/16 04:38:02;;;;;;;5.20;1.88;;;21.30;99.90;;;;;;2092235;28;20174;-71
2023/07/16 04:39:03;;;;;;;4.68;2.45;;;21.30;99.90;;;;;;2091814;28;20027;-71
2023/07/16 04:40:04;;;;;;;5.07;2.13;;;21.30;99.90;;;;;;2091009;28;20020;-71
2023/07/16 04:41:04;;;;;;;5.32;1.75;;;21.30;99.90;;;;;;2092253;28;20063;-71
2023/07/16 04:42:05;;;;;;;6.13;2.42;;;21.40;99.90;;;;;;2093006;28;20032;-71
2023/07/16 04:43:05;;;;;;;6.75;2.20;;;21.40;99.90;;;;;;2091821;28;20064;-71
2023/07/16 04:44:06;;;;;;;7.00;1.90;;;21.40;99.90;;;;;;2091715;28;20028;-71
2023/07/16 04:45:07;;;;;;;6.03;2.20;;;21.40;99.90;;;;;;2092646;28;20031;-71
2023/07/16 04:46:07;;;;;;;3.75;2.22;;;21.40;99.90;;;;;;2091683;28;20077;-71
2023/07/16 04:47:08;;;;;;;9.40;2.30;;;21.40;99.90;;;;;;2093108;28;20524;-71
2023/07/16 04:48:08;;;;;;;5.43;2.25;;;21.40;99.90;;;;;;2093488;28;20810;-71
2023/07/16 04:49:09;;;;;;;3.92;1.80;;;21.40;99.90;;;;;;2091762;28;20028;-71
2023/07/16 04:50:10;;;;;;;5.95;2.25;;;21.40;99.90;;;;;;2092040;28;20036;-71
2023/07/16 04:51:10;;;;;;;3.20;1.88;;;21.50;99.90;;;;;;2093745;28;20056;-71
2023/07/16 04:52:11;;;;;;;4.55;1.80;;;21.50;99.90;;;;;;2090618;28;20071;-71
2023/07/16 04:53:11;;;;;;;4.80;2.20;;;21.60;99.90;;;;;;2092758;28;20101;-71
2023/07/16 04:54:12;;;;;;;4.50;2.17;;;21.60;99.90;;;;;;2093379;28;20013;-71
2023/07/16 04:55:13;;;;;;;5.30;2.50;;;21.70;99.90;;;;;;2093557;28;20102;-71
2023/07/16 04:56:15;;;;;;;6.28;2.25;;;21.70;99.90;;;;;;2093462;28;20036;-71
2023/07/16 04:57:15;;;;;;;4.63;2.17;;;21.70;99.90;;;;;;2093115;28;20027;-71
2023/07/16 04:58:16;;;;;;;6.68;2.60;;;21.80;99.90;;;;;;2090927;28;20112;-71
2023/07/16 04:59:16;;;;;;;5.78;2.17;;;21.80;99.90;;;;;;2091634;28;20024;-70
2023/07/16 05:00:17;;;;;;;5.13;2.15;;;21.90;99.90;;;;;;2091261;28;20564;-71
2023/07/16 05:01:17;;;;;;;6.30;2.55;;;21.90;99.90;;;;;;2091063;28;20028;-71
2023/07/16 05:02:18;;;;;;;5.63;2.42;;;22.00;99.90;;;;;;2092033;28;20032;-71
2023/07/16 05:03:18;;;;;;;5.18;2.15;;;22.00;99.90;;;;;;2091205;28;20905;-71
2023/07/16 05:04:19;;;;;;;6.70;2.45;;;22.10;99.90;;;;;;2091672;28;20016;-70
2023/07/16 05:05:19;;;;;;;5.07;2.13;;;22.20;99.90;;;;;;2090915;28;20020;-71
2023/07/16 05:06:20;;;;;;;4.32;2.40;;;22.20;99.90;;;;;;2092115;28;20153;-71
2023/07/16 05:07:20;;;;;;;4.45;2.30;;;22.30;99.90;;;;;;2091477;28;20468;-71
2023/07/16 05:08:21;;;;;;;3.58;2.08;;;22.40;99.90;;;;;;2093334;28;20100;-71
2023/07/16 05:09:21;;;;;;;8.48;2.17;;;22.40;99.90;;;;;;2091062;28;20028;-71
2023/07/16 05:10:22;;;;;;;5.10;1.90;;;22.50;99.90;;;;;;2090878;28;20056;-71
2023/07/16 05:11:23;;;;;;;5.65;2.20;;;22.60;99.90;;;;;;2092728;28;20425;-71
2023/07/16 05:12:23;;;;;;;4.95;2.03;;;22.60;99.90;;;;;;2089582;28;20025;-71
2023/07/16 05:13:24;;;;;;;5.25;2.25;;;22.70;99.90;;;;;;2092097;28;20036;-71
2023/07/16 05:14:28;;;;;;;5.15;2.28;;;22.70;99.90;;;;;;2090176;28;20020;-71
2023/07/16 05:15:28;;;;;;;4.00;2.00;;;22.80;99.90;;;;;;2090718;28;20637;-71
2023/07/16 05:16:29;;;;;;;4.25;2.03;;;22.90;99.90;;;;;;2092034;28;20017;-71
2023/07/16 05:17:29;;;;;;;5.78;2.30;;;22.90;99.90;;;;;;2090667;28;20097;-71
2023/07/16 05:18:30;;;;;;;4.72;2.30;;;23.00;99.90;;;;;;2089998;28;20373;-71
2023/07/16 05:19:30;;;;;;;9.27;2.60;;;23.10;99.90;;;;;;2091998;28;20392;-71
2023/07/16 05:20:31;;;;;;;5.68;2.33;;;23.10;99.90;;;;;;2092682;28;20032;-71
2023/07/16 05:21:31;;;;;;;9.13;2.50;;;23.20;99.90;;;;;;2092201;28;20049;-71